createdAt,value
2023-08-24T00:02:12.032Z,85.46
2023-08-24T00:04:39.328Z,84.32
2023-08-24T00:07:06.782Z,83.75
2023-08-24T00:09:34.059Z,83.84
2023-08-24T00:12:01.534Z,83.57
2023-08-24T00:14:29.194Z,83.68
2023-08-24T00:16:56.545Z,83.60
2023-08-24T00:19:23.844Z,83.40
2023-08-24T00:21:51.242Z,83.60
2023-08-24T00:24:18.622Z,83.94
2023-08-24T00:26:46.038Z,84.65
2023-08-24T00:29:13.377Z,84.33
2023-08-24T00:31:40.840Z,84.92
2023-08-24T00:34:08.151Z,85.29
2023-08-24T00:36:35.849Z,85.66
2023-08-24T00:39:03.487Z,85.02
2023-08-24T00:41:31.237Z,84.49
2023-08-24T00:43:58.966Z,84.00
2023-08-24T00:46:28.299Z,83.55
2023-08-24T00:48:58.428Z,83.92
2023-08-24T00:51:25.891Z,82.97
2023-08-24T00:53:53.278Z,83.64
2023-08-24T00:56:25.789Z,84.05
2023-08-24T00:58:53.536Z,84.12
2023-08-24T01:01:21.135Z,82.99
2023-08-24T01:03:48.543Z,82.92
2023-08-24T01:06:15.874Z,83.28
2023-08-24T01:08:43.328Z,83.07
2023-08-24T01:11:16.690Z,82.51
2023-08-24T01:13:49.097Z,82.46
2023-08-24T01:16:22.554Z,82.77
2023-08-24T01:18:50.081Z,82.43
2023-08-24T01:21:18.135Z,83.28
2023-08-24T01:24:13.629Z,83.39
2023-08-24T01:26:41.308Z,83.23
2023-08-24T01:29:08.572Z,82.35
2023-08-24T01:31:36.042Z,82.04
2023-08-24T01:34:03.341Z,81.86
2023-08-24T01:36:31.777Z,81.98
2023-08-24T01:39:19.465Z,81.27
2023-08-24T01:41:47.125Z,81.62
2023-08-24T01:44:14.521Z,81.97
2023-08-24T01:46:41.901Z,82.13
2023-08-24T01:49:09.261Z,81.02
2023-08-24T01:51:36.652Z,80.33
2023-08-24T01:54:04.267Z,79.93
2023-08-24T01:56:31.599Z,79.31
2023-08-24T01:58:59.479Z,79.21
2023-08-24T02:01:27.004Z,79.14
2023-08-24T02:03:54.358Z,79.04
2023-08-24T02:06:21.739Z,79.22
2023-08-24T02:08:49.429Z,79.64
2023-08-24T02:11:17.006Z,79.71
2023-08-24T02:13:44.286Z,79.45
2023-08-24T02:16:12.737Z,79.81
2023-08-24T02:18:40.033Z,79.46
2023-08-24T02:21:12.975Z,79.89
2023-08-24T02:23:41.071Z,80.74
2023-08-24T02:26:08.738Z,80.34
2023-08-24T02:28:37.569Z,79.99
2023-08-24T02:31:05.212Z,79.96
2023-08-24T02:33:32.759Z,80.55
2023-08-24T02:36:00.219Z,80.80
2023-08-24T02:38:27.648Z,81.10
2023-08-24T02:41:04.963Z,81.29
2023-08-24T02:43:32.896Z,81.62
2023-08-24T02:46:08.589Z,81.72
2023-08-24T02:48:36.200Z,80.60
2023-08-24T02:51:04.767Z,80.85
2023-08-24T02:53:32.182Z,81.33
2023-08-24T02:55:59.672Z,81.44
2023-08-24T02:58:28.817Z,81.49
2023-08-24T03:00:56.588Z,81.56
2023-08-24T03:03:24.736Z,81.43
2023-08-24T03:05:58.814Z,81.46
2023-08-24T03:08:28.413Z,81.36
2023-08-24T03:10:55.929Z,81.59
2023-08-24T03:13:23.936Z,81.60
2023-08-24T03:15:53.368Z,80.58
2023-08-24T03:18:21.319Z,81.15
2023-08-24T03:20:49.415Z,82.16
2023-08-24T03:23:17.569Z,82.16
2023-08-24T03:25:45.320Z,81.91
2023-08-24T03:28:12.769Z,82.32
2023-08-24T03:30:46.629Z,82.26
2023-08-24T03:33:14.479Z,81.56
2023-08-24T03:35:41.950Z,82.31
2023-08-24T03:38:09.424Z,81.96
2023-08-24T03:40:36.741Z,81.67
2023-08-24T03:43:04.464Z,82.13
2023-08-24T03:45:31.992Z,82.18
2023-08-24T03:47:59.593Z,82.93
2023-08-24T03:50:27.667Z,82.85
2023-08-24T03:52:55.817Z,82.26
2023-08-24T03:55:24.223Z,82.31
2023-08-24T03:57:52.028Z,81.84
2023-08-24T04:00:19.685Z,81.61
2023-08-24T04:02:47.329Z,81.91
2023-08-24T04:05:22.230Z,81.97
2023-08-24T04:07:50.000Z,82.35
2023-08-24T04:10:17.413Z,82.66
2023-08-24T04:12:44.814Z,82.91
2023-08-24T04:15:12.362Z,82.72
2023-08-24T04:17:41.799Z,82.22
2023-08-24T04:20:11.646Z,81.87
2023-08-24T04:22:38.967Z,81.90
2023-08-24T04:25:07.403Z,82.13
2023-08-24T04:27:34.737Z,81.49
2023-08-24T04:30:02.112Z,81.12
2023-08-24T04:32:29.478Z,80.81
2023-08-24T04:34:57.014Z,80.59
2023-08-24T04:37:24.356Z,80.87
2023-08-24T04:39:51.637Z,81.05
2023-08-24T04:42:19.004Z,81.00
2023-08-24T04:44:46.389Z,80.78
2023-08-24T04:47:13.695Z,80.45
2023-08-24T04:49:41.064Z,81.26
2023-08-24T04:52:08.347Z,80.86
2023-08-24T04:54:35.779Z,81.03
2023-08-24T04:57:03.386Z,80.46
2023-08-24T04:59:30.703Z,80.32
2023-08-24T05:01:58.194Z,80.86
2023-08-24T05:04:25.804Z,80.89
2023-08-24T05:06:53.029Z,81.07
2023-08-24T05:09:20.462Z,80.58
2023-08-24T05:11:47.793Z,80.46
2023-08-24T05:14:15.354Z,80.79
2023-08-24T05:16:42.878Z,80.47
2023-08-24T05:19:10.356Z,80.04
2023-08-24T05:21:37.635Z,80.00
2023-08-24T05:24:05.525Z,80.02
2023-08-24T05:26:33.049Z,80.29
2023-08-24T05:29:00.372Z,80.08
2023-08-24T05:31:27.773Z,79.36
2023-08-24T05:33:55.153Z,80.15
2023-08-24T05:36:22.417Z,79.28
2023-08-24T05:41:20.357Z,78.92
2023-08-24T05:43:48.507Z,78.82
2023-08-24T05:46:16.076Z,78.35
2023-08-24T05:48:43.581Z,78.03
2023-08-24T05:51:13.581Z,78.33
2023-08-24T05:53:42.120Z,77.97
2023-08-24T05:56:10.095Z,77.96
2023-08-24T05:58:37.557Z,77.81
2023-08-24T06:01:04.880Z,76.67
2023-08-24T06:03:32.482Z,76.53
2023-08-24T06:06:04.889Z,76.44
2023-08-24T06:08:32.912Z,76.54
2023-08-24T06:11:23.663Z,76.30
2023-08-24T06:13:55.928Z,75.66
2023-08-24T06:16:24.219Z,75.13
2023-08-24T06:18:51.791Z,74.80
2023-08-24T06:21:19.699Z,74.33
2023-08-24T06:23:48.731Z,73.84
2023-08-24T06:26:16.470Z,73.61
2023-08-24T06:28:44.391Z,73.22
2023-08-24T06:31:12.197Z,73.49
2023-08-24T06:33:39.605Z,72.57
2023-08-24T06:36:09.187Z,71.78
2023-08-24T06:38:37.284Z,70.22
2023-08-24T06:41:05.016Z,70.42
2023-08-24T06:43:32.344Z,70.18
2023-08-24T06:46:00.079Z,70.06
2023-08-24T06:48:27.680Z,67.57
2023-08-24T06:50:55.339Z,60.67
2023-08-24T06:53:23.552Z,54.30
2023-08-24T06:55:58.134Z,50.63
2023-08-24T06:58:25.489Z,48.53
2023-08-24T07:00:52.872Z,47.66
2023-08-24T07:03:20.326Z,47.25
2023-08-24T07:05:47.725Z,47.81
2023-08-24T07:08:15.409Z,46.38
2023-08-24T07:10:43.746Z,46.13
2023-08-24T07:13:11.233Z,46.13
2023-08-24T07:15:38.707Z,46.23
2023-08-24T07:18:06.884Z,44.77
2023-08-24T07:20:34.530Z,43.90
2023-08-24T07:23:02.351Z,42.88
2023-08-24T07:25:29.636Z,42.11
2023-08-24T07:27:59.583Z,42.06
2023-08-24T07:30:33.877Z,42.17
2023-08-24T07:33:04.419Z,41.41
2023-08-24T07:35:32.299Z,40.98
2023-08-24T07:37:59.699Z,42.11
2023-08-24T07:40:27.516Z,41.62
2023-08-24T07:42:56.574Z,41.77
2023-08-24T07:45:26.872Z,40.75
2023-08-24T07:47:55.825Z,39.86
2023-08-24T07:50:24.124Z,39.79
2023-08-24T07:52:52.766Z,40.91
2023-08-24T07:55:21.402Z,40.40
2023-08-24T07:57:50.591Z,45.00
2023-08-24T08:00:18.430Z,44.16
2023-08-24T08:02:45.805Z,41.52
2023-08-24T08:05:13.869Z,40.55
2023-08-24T08:07:41.324Z,42.50
2023-08-24T08:10:09.074Z,41.70
2023-08-24T08:12:37.087Z,40.54
2023-08-24T08:15:05.226Z,43.85
2023-08-24T08:17:50.074Z,41.65
2023-08-24T08:20:17.773Z,41.39
2023-08-24T08:22:46.110Z,41.41
2023-08-24T08:25:16.268Z,41.02
2023-08-24T08:27:45.264Z,42.19
2023-08-24T08:30:13.407Z,40.97
2023-08-24T08:32:40.878Z,39.62
2023-08-24T08:35:09.611Z,42.23
2023-08-24T08:37:37.520Z,41.05
2023-08-24T08:40:10.711Z,39.61
2023-08-24T08:42:38.457Z,40.84
2023-08-24T08:45:09.470Z,43.04
2023-08-24T08:47:37.142Z,43.17
2023-08-24T08:50:04.943Z,48.74
2023-08-24T08:52:35.150Z,49.68
2023-08-24T08:55:07.521Z,49.42
2023-08-24T08:57:35.501Z,50.41
2023-08-24T09:00:03.712Z,51.50
2023-08-24T09:02:31.168Z,52.58
2023-08-24T09:04:58.870Z,53.21
2023-08-24T09:07:26.393Z,52.28
2023-08-24T09:09:53.856Z,51.72
2023-08-24T09:12:24.600Z,53.26
2023-08-24T09:14:55.934Z,51.92
2023-08-24T09:17:24.249Z,51.62
2023-08-24T09:19:53.858Z,52.27
2023-08-24T09:22:22.144Z,52.90
2023-08-24T09:24:51.122Z,52.14
2023-08-24T09:27:19.901Z,51.34
2023-08-24T09:29:54.007Z,51.53
2023-08-24T09:32:24.920Z,51.56
2023-08-24T09:34:53.026Z,51.06
2023-08-24T09:37:21.327Z,50.13
2023-08-24T09:39:49.517Z,50.13
2023-08-24T09:42:18.750Z,49.45
2023-08-24T09:44:49.527Z,50.38
2023-08-24T09:47:16.927Z,49.99
2023-08-24T09:49:44.337Z,50.86
2023-08-24T09:52:13.129Z,48.27
2023-08-24T09:54:40.460Z,48.18
2023-08-24T09:57:09.693Z,49.62
2023-08-24T09:59:37.060Z,48.78
2023-08-24T10:02:05.160Z,49.27
2023-08-24T10:04:34.950Z,49.95
2023-08-24T10:07:12.148Z,51.11
2023-08-24T10:09:45.779Z,50.19
2023-08-24T10:12:13.119Z,50.67
2023-08-24T10:14:48.564Z,50.67
2023-08-24T10:17:16.052Z,50.21
2023-08-24T10:19:43.855Z,50.29
2023-08-24T10:22:11.273Z,50.21
2023-08-24T10:24:38.566Z,49.10
2023-08-24T10:27:06.090Z,49.55
2023-08-24T10:29:33.440Z,49.99
2023-08-24T10:32:00.942Z,50.17
2023-08-24T10:34:28.272Z,50.08
2023-08-24T10:36:55.954Z,49.36
2023-08-24T10:39:30.392Z,48.95
2023-08-24T10:41:57.895Z,48.47
2023-08-24T10:44:39.089Z,48.30
2023-08-24T10:47:07.928Z,47.55
2023-08-24T10:49:35.283Z,47.34
2023-08-24T10:52:24.413Z,47.58
2023-08-24T10:54:55.005Z,47.52
2023-08-24T10:57:28.739Z,46.59
2023-08-24T11:00:15.446Z,47.69
2023-08-24T11:02:49.762Z,47.58
2023-08-24T11:05:26.052Z,46.05
2023-08-24T11:07:57.842Z,46.29
2023-08-24T11:10:26.699Z,45.83
2023-08-24T11:13:03.906Z,45.04
2023-08-24T11:15:32.515Z,45.70
2023-08-24T11:18:24.820Z,46.60
2023-08-24T11:20:56.396Z,46.09
2023-08-24T11:23:25.085Z,46.65
2023-08-24T11:25:56.224Z,45.34
2023-08-24T11:28:24.386Z,45.69
2023-08-24T11:30:54.475Z,46.00
2023-08-24T11:33:31.521Z,45.87
2023-08-24T11:35:59.402Z,46.55
2023-08-24T11:38:26.954Z,45.56
2023-08-24T11:40:54.463Z,45.43
2023-08-24T11:43:28.307Z,46.15
2023-08-24T11:45:55.777Z,45.25
2023-08-24T11:48:27.596Z,46.74
2023-08-24T11:50:56.274Z,45.60
2023-08-24T11:53:25.559Z,45.97
2023-08-24T11:56:05.664Z,46.65
2023-08-24T11:58:33.801Z,46.70
2023-08-24T12:01:01.769Z,47.20
2023-08-24T12:03:29.397Z,45.83
2023-08-24T12:06:01.214Z,46.52
2023-08-24T12:08:28.649Z,46.12
2023-08-24T12:10:56.581Z,46.84
2023-08-24T12:13:24.049Z,46.33
2023-08-24T12:15:54.105Z,46.99
2023-08-24T12:18:21.580Z,45.95
2023-08-24T12:20:48.982Z,45.66
2023-08-24T12:23:16.365Z,46.01
2023-08-24T12:25:44.256Z,46.42
2023-08-24T12:28:16.384Z,46.96
2023-08-24T12:30:50.916Z,46.80
2023-08-24T12:33:28.838Z,46.22
2023-08-24T12:35:57.021Z,46.40
2023-08-24T12:38:25.182Z,46.81
2023-08-24T12:40:53.517Z,45.97
2023-08-24T12:43:21.103Z,46.67
2023-08-24T12:45:48.893Z,45.36
2023-08-24T12:48:16.661Z,45.02
2023-08-24T12:50:44.249Z,45.08
2023-08-24T12:53:11.664Z,45.42
2023-08-24T12:55:40.509Z,44.89
2023-08-24T12:58:08.280Z,45.05
2023-08-24T13:00:35.862Z,44.30
2023-08-24T13:03:03.443Z,44.54
2023-08-24T13:05:32.670Z,45.05
2023-08-24T13:08:00.784Z,45.32
2023-08-24T13:10:28.823Z,44.79
2023-08-24T13:12:57.731Z,45.75
2023-08-24T13:15:25.446Z,45.56
2023-08-24T13:17:53.378Z,45.13
2023-08-24T13:20:21.323Z,46.80
2023-08-24T13:22:48.640Z,46.58
2023-08-24T13:25:16.401Z,46.01
2023-08-24T13:27:43.958Z,46.09
2023-08-24T13:30:11.615Z,45.96
2023-08-24T13:32:40.242Z,45.68
2023-08-24T13:35:10.270Z,46.54
2023-08-24T13:37:37.915Z,46.88
2023-08-24T13:40:06.088Z,45.77
2023-08-24T13:42:33.492Z,46.13
2023-08-24T13:45:00.847Z,46.24
2023-08-24T13:47:28.328Z,46.10
2023-08-24T13:49:55.763Z,46.31
2023-08-24T13:52:23.378Z,45.83
2023-08-24T13:55:03.240Z,45.59
2023-08-24T13:57:38.249Z,45.66
2023-08-24T14:00:09.105Z,46.25
2023-08-24T14:02:40.164Z,46.73
2023-08-24T14:05:10.510Z,47.02
2023-08-24T14:07:38.313Z,47.73
2023-08-24T14:10:07.851Z,46.99
2023-08-24T14:12:35.554Z,46.96
2023-08-24T14:15:03.302Z,46.84
2023-08-24T14:17:31.238Z,47.05
2023-08-24T14:19:58.853Z,46.27
2023-08-24T14:22:27.136Z,47.18
2023-08-24T14:24:54.611Z,47.63
2023-08-24T14:27:21.997Z,48.15
2023-08-24T14:29:49.431Z,48.71
2023-08-24T14:32:17.123Z,48.04
2023-08-24T14:34:44.708Z,48.22
2023-08-24T14:37:12.285Z,48.02
2023-08-24T14:39:39.717Z,48.28
2023-08-24T14:42:08.138Z,47.42
2023-08-24T14:44:36.350Z,48.25
2023-08-24T14:47:03.974Z,48.03
2023-08-24T14:49:31.643Z,47.87
2023-08-24T14:51:59.326Z,48.41
2023-08-24T14:54:26.915Z,48.90
2023-08-24T14:56:54.615Z,48.60
2023-08-24T14:59:23.655Z,48.76
2023-08-24T15:01:51.222Z,48.75
2023-08-24T15:04:18.613Z,49.40
2023-08-24T15:06:46.166Z,47.79
2023-08-24T15:09:13.488Z,47.81
2023-08-24T15:11:40.888Z,48.73
2023-08-24T15:14:08.457Z,47.79
2023-08-24T15:16:35.941Z,48.09
2023-08-24T15:19:03.536Z,49.35
2023-08-24T15:21:30.882Z,49.71
2023-08-24T15:23:58.356Z,49.06
2023-08-24T15:26:25.927Z,50.35
2023-08-24T15:29:13.049Z,49.23
2023-08-24T15:31:41.081Z,50.18
2023-08-24T15:34:08.873Z,49.40
2023-08-24T15:36:36.353Z,49.16
2023-08-24T15:39:04.536Z,49.54
2023-08-24T15:41:31.987Z,50.81
2023-08-24T15:43:59.425Z,50.61
2023-08-24T15:46:26.987Z,50.54
2023-08-24T15:48:57.091Z,51.24
2023-08-24T15:51:25.024Z,51.20
2023-08-24T15:53:52.425Z,51.55
2023-08-24T15:56:20.187Z,51.68
2023-08-24T15:58:47.953Z,51.91
2023-08-24T16:01:15.416Z,53.61
2023-08-24T16:03:43.476Z,53.73
2023-08-24T16:06:10.969Z,52.95
2023-08-24T16:08:38.304Z,53.67
2023-08-24T16:11:06.198Z,53.51
2023-08-24T16:13:33.719Z,54.87
2023-08-24T16:16:01.141Z,55.19
2023-08-24T16:18:28.440Z,54.69
2023-08-24T16:20:55.987Z,54.81
2023-08-24T16:23:23.527Z,54.92
2023-08-24T16:25:50.949Z,55.71
2023-08-24T16:28:18.522Z,56.17
2023-08-24T16:30:49.691Z,56.08
2023-08-24T16:33:20.397Z,56.88
2023-08-24T16:35:48.609Z,55.76
2023-08-24T16:38:16.542Z,56.43
2023-08-24T16:40:44.198Z,56.55
2023-08-24T16:43:14.663Z,57.26
2023-08-24T16:45:42.254Z,57.10
2023-08-24T16:48:10.044Z,57.09
2023-08-24T16:50:37.428Z,57.33
2023-08-24T16:53:05.064Z,57.62
2023-08-24T16:55:32.568Z,57.85
2023-08-24T16:57:59.976Z,58.38
2023-08-24T17:00:27.465Z,58.97
2023-08-24T17:02:56.780Z,58.91
2023-08-24T17:05:24.589Z,58.92
2023-08-24T17:08:11.290Z,59.46
2023-08-24T17:10:40.594Z,59.85
2023-08-24T17:13:08.279Z,60.39
2023-08-24T17:15:35.860Z,60.83
2023-08-24T17:18:04.101Z,61.70
2023-08-24T17:20:31.507Z,62.07
2023-08-24T17:22:59.020Z,62.22
2023-08-24T17:25:26.528Z,62.39
2023-08-24T17:27:54.273Z,62.03
2023-08-24T17:30:22.100Z,62.30
2023-08-24T17:32:49.472Z,62.67
2023-08-24T17:35:17.208Z,62.34
2023-08-24T17:37:44.555Z,61.69
2023-08-24T17:40:13.658Z,61.94
2023-08-24T17:42:41.311Z,62.11
2023-08-24T17:45:09.815Z,62.35
2023-08-24T17:47:37.490Z,62.31
2023-08-24T17:50:09.798Z,62.42
2023-08-24T17:52:37.314Z,62.78
2023-08-24T17:55:06.370Z,62.71
2023-08-24T17:57:34.396Z,63.24
2023-08-24T18:00:02.920Z,63.13
2023-08-24T18:02:33.756Z,63.29
2023-08-24T18:05:01.347Z,63.70
2023-08-24T18:07:28.864Z,63.93
2023-08-24T18:09:56.668Z,63.87
2023-08-24T18:12:24.714Z,63.98
2023-08-24T18:14:52.142Z,64.10
2023-08-24T18:17:19.664Z,64.34
2023-08-24T18:19:47.381Z,64.71
2023-08-24T18:22:14.788Z,65.29
2023-08-24T18:24:43.936Z,65.09
2023-08-24T18:27:11.509Z,65.21
2023-08-24T18:29:39.290Z,65.62
2023-08-24T18:32:06.984Z,65.44
2023-08-24T18:34:34.892Z,65.47
2023-08-24T18:37:02.323Z,65.94
2023-08-24T18:39:30.479Z,66.11
2023-08-24T18:41:58.330Z,65.96
2023-08-24T18:44:26.018Z,66.18
2023-08-24T18:46:54.388Z,66.94
2023-08-24T18:49:22.121Z,66.99
2023-08-24T18:51:52.254Z,67.33
2023-08-24T18:54:19.910Z,68.30
2023-08-24T18:56:47.497Z,68.35
2023-08-24T18:59:15.026Z,68.42
2023-08-24T19:01:42.578Z,68.72
2023-08-24T19:04:10.212Z,68.78
2023-08-24T19:06:46.648Z,69.29
2023-08-24T19:09:14.862Z,69.08
2023-08-24T19:11:42.266Z,69.44
2023-08-24T19:14:09.749Z,69.00
2023-08-24T19:16:37.375Z,69.21
2023-08-24T19:19:05.050Z,69.08
2023-08-24T19:21:32.599Z,68.89
2023-08-24T19:24:00.052Z,69.36
2023-08-24T19:26:27.560Z,69.65
2023-08-24T19:28:55.116Z,70.07
2023-08-24T19:31:22.620Z,70.49
2023-08-24T19:33:50.292Z,70.76
2023-08-24T19:36:17.806Z,70.81
2023-08-24T19:38:45.395Z,70.75
2023-08-24T19:41:12.797Z,71.02
2023-08-24T19:43:40.236Z,70.77
2023-08-24T19:46:07.895Z,71.28
2023-08-24T19:48:36.842Z,70.97
2023-08-24T19:51:04.127Z,70.66
2023-08-24T19:53:31.582Z,71.03
2023-08-24T19:55:58.961Z,70.71
2023-08-24T19:58:26.578Z,70.37
2023-08-24T20:00:56.950Z,70.43
2023-08-24T20:03:24.765Z,70.80
2023-08-24T20:05:59.098Z,71.06
2023-08-24T20:08:29.635Z,70.88
2023-08-24T20:10:57.822Z,71.45
2023-08-24T20:13:25.238Z,71.44
2023-08-24T20:15:52.593Z,71.50
2023-08-24T20:18:20.091Z,71.60
2023-08-24T20:20:48.286Z,71.44
2023-08-24T20:23:15.589Z,71.45
2023-08-24T20:25:43.184Z,71.86
2023-08-24T20:28:10.660Z,72.58
2023-08-24T20:30:38.152Z,72.87
2023-08-24T20:33:05.643Z,72.69
2023-08-24T20:35:33.396Z,72.49
2023-08-24T20:38:00.765Z,73.28
2023-08-24T20:40:29.138Z,72.91
2023-08-24T20:42:56.607Z,73.20
2023-08-24T20:45:24.127Z,72.52
2023-08-24T20:47:51.928Z,72.69
2023-08-24T20:50:19.643Z,72.84
2023-08-24T20:52:46.950Z,73.23
2023-08-24T20:55:15.419Z,73.35
2023-08-24T20:57:42.957Z,74.04
2023-08-24T21:00:12.538Z,73.67
2023-08-24T21:02:40.159Z,74.01
2023-08-24T21:05:08.403Z,74.66
2023-08-24T21:07:35.717Z,74.48
2023-08-24T21:10:03.287Z,74.40
2023-08-24T21:12:30.741Z,74.87
2023-08-24T21:14:58.340Z,75.25
2023-08-24T21:17:27.392Z,75.25
2023-08-24T21:19:54.948Z,75.75
2023-08-24T21:22:22.308Z,76.25
2023-08-24T21:24:49.915Z,76.55
2023-08-24T21:27:17.454Z,76.58
2023-08-24T21:29:45.488Z,76.31
2023-08-24T21:32:12.970Z,76.70
2023-08-24T21:34:40.573Z,76.35
2023-08-24T21:37:07.919Z,76.60
2023-08-24T21:39:35.360Z,77.09
2023-08-24T21:42:03.089Z,77.08
2023-08-24T21:44:30.653Z,76.82
2023-08-24T21:46:58.049Z,76.71
2023-08-24T21:49:25.777Z,76.99
2023-08-24T21:51:53.165Z,77.23
2023-08-24T21:54:20.600Z,77.20
2023-08-24T21:56:48.058Z,77.13
2023-08-24T21:59:15.517Z,77.11
2023-08-24T22:01:42.952Z,77.27
2023-08-24T22:04:10.719Z,77.57
2023-08-24T22:06:38.215Z,77.66
2023-08-24T22:09:05.831Z,76.87
2023-08-24T22:11:33.100Z,76.67
2023-08-24T22:14:01.007Z,76.54
2023-08-24T22:16:31.627Z,77.12
2023-08-24T22:18:59.089Z,77.20
2023-08-24T22:21:26.890Z,77.75
2023-08-24T22:23:54.532Z,78.02
2023-08-24T22:26:22.495Z,77.66
2023-08-24T22:28:49.885Z,78.01
2023-08-24T22:31:18.041Z,77.71
2023-08-24T22:33:45.416Z,77.48
2023-08-24T22:36:13.396Z,77.28
2023-08-24T22:38:40.931Z,77.54
2023-08-24T22:41:08.358Z,76.93
2023-08-24T22:43:35.925Z,77.62
2023-08-24T22:46:04.470Z,77.51
2023-08-24T22:48:31.961Z,77.57
2023-08-24T22:50:59.453Z,78.01
2023-08-24T22:53:26.952Z,78.11
2023-08-24T22:55:54.381Z,77.98
2023-08-24T22:58:22.032Z,78.21
2023-08-24T23:00:49.392Z,78.42
2023-08-24T23:03:16.846Z,78.28
2023-08-24T23:05:44.218Z,78.09
2023-08-24T23:08:11.848Z,78.57
2023-08-24T23:10:39.632Z,78.26
2023-08-24T23:13:07.808Z,78.38
2023-08-24T23:15:35.446Z,78.37
2023-08-24T23:18:03.192Z,77.89
2023-08-24T23:20:30.694Z,78.59
2023-08-24T23:22:58.034Z,78.82
2023-08-24T23:25:25.526Z,78.98
2023-08-24T23:27:54.474Z,78.95
2023-08-24T23:30:22.184Z,79.04
2023-08-24T23:32:49.875Z,79.64
2023-08-24T23:35:17.384Z,79.26
2023-08-24T23:37:44.953Z,80.04
2023-08-24T23:40:13.823Z,79.76
2023-08-24T23:42:42.144Z,79.24
2023-08-24T23:45:11.357Z,79.21
2023-08-24T23:47:39.452Z,79.42
2023-08-24T23:50:07.322Z,79.07
2023-08-24T23:52:35.040Z,79.15
2023-08-24T23:55:03.821Z,79.45
2023-08-24T23:57:31.315Z,79.56
2023-08-24T23:59:59.182Z,79.34
